sensor_id;sensor_type;location;lat;lon;timestamp;temperature;humidity
26745;DHT22;14342;50.960;13.880;2023-07-28T00:00:36;19.50;99.90
26745;DHT22;14342;50.960;13.880;2023-07-28T00:01:38;19.60;99.90
26745;DHT22;14342;50.960;13.880;2023-07-28T00:02:38;19.70;99.90
26745;DHT22;14342;50.960;13.880;2023-07-28T00:03:39;19.70;99.90
26745;DHT22;14342;50.960;13.880;2023-07-28T00:04:40;19.70;99.90
26745;DHT22;14342;50.960;13.880;2023-07-28T00:05:41;19.70;99.90
26745;DHT22;14342;50.960;13.880;2023-07-28T00:06:44;19.70;99.90
26745;DHT22;14342;50.960;13.880;2023-07-28T00:07:45;19.80;99.90
26745;DHT22;14342;50.960;13.880;2023-07-28T00:08:46;19.90;99.90
26745;DHT22;14342;50.960;13.880;2023-07-28T00:09:47;19.90;99.90
26745;DHT22;14342;50.960;13.880;2023-07-28T00:10:49;20.00;99.90
26745;DHT22;14342;50.960;13.880;2023-07-28T00:11:49;19.90;99.90
26745;DHT22;14342;50.960;13.880;2023-07-28T00:12:51;19.90;99.90
26745;DHT22;14342;50.960;13.880;2023-07-28T00:13:51;19.90;99.90
26745;DHT22;14342;50.960;13.880;2023-07-28T00:14:53;19.90;99.90
26745;DHT22;14342;50.960;13.880;2023-07-28T00:15:54;19.90;99.90
26745;DHT22;14342;50.960;13.880;2023-07-28T00:16:56;20.00;99.90
26745;DHT22;14342;50.960;13.880;2023-07-28T00:17:57;20.00;99.90
26745;DHT22;14342;50.960;13.880;2023-07-28T00:18:58;19.90;99.90
26745;DHT22;14342;50.960;13.880;2023-07-28T00:19:59;19.90;99.90
26745;DHT22;14342;50.960;13.880;2023-07-28T00:21:00;19.90;99.90
26745;DHT22;14342;50.960;13.880;2023-07-28T00:22:03;20.00;99.90
26745;DHT22;14342;50.960;13.880;2023-07-28T00:23:03;20.00;99.90
26745;DHT22;14342;50.960;13.880;2023-07-28T00:24:04;20.00;99.90
26745;DHT22;14342;50.960;13.880;2023-07-28T00:25:06;20.00;99.90
26745;DHT22;14342;50.960;13.880;2023-07-28T00:26:07;20.00;99.90
26745;DHT22;14342;50.960;13.880;2023-07-28T00:27:08;20.00;99.90
26745;DHT22;14342;50.960;13.880;2023-07-28T00:28:09;19.80;99.90
26745;DHT22;14342;50.960;13.880;2023-07-28T00:29:11;19.80;99.90
26745;DHT22;14342;50.960;13.880;2023-07-28T00:30:11;19.90;99.90
26745;DHT22;14342;50.960;13.880;2023-07-28T00:31:13;20.00;99.90
26745;DHT22;14342;50.960;13.880;2023-07-28T00:32:14;20.00;99.90
26745;DHT22;14342;50.960;13.880;2023-07-28T00:33:15;19.90;99.90
26745;DHT22;14342;50.960;13.880;2023-07-28T00:34:16;19.80;99.90
26745;DHT22;14342;50.960;13.880;2023-07-28T00:35:17;19.80;99.90
26745;DHT22;14342;50.960;13.880;2023-07-28T00:36:18;19.70;99.90
26745;DHT22;14342;50.960;13.880;2023-07-28T00:37:21;19.80;99.90
26745;DHT22;14342;50.960;13.880;2023-07-28T00:38:21;19.80;99.90
26745;DHT22;14342;50.960;13.880;2023-07-28T00:39:23;19.90;99.90
26745;DHT22;14342;50.960;13.880;2023-07-28T00:40:24;19.90;99.90
26745;DHT22;14342;50.960;13.880;2023-07-28T00:41:25;19.80;99.90
26745;DHT22;14342;50.960;13.880;2023-07-28T00:42:26;19.90;99.90
26745;DHT22;14342;50.960;13.880;2023-07-28T00:43:27;20.00;99.90
26745;DHT22;14342;50.960;13.880;2023-07-28T00:44:28;20.20;99.90
26745;DHT22;14342;50.960;13.880;2023-07-28T00:45:30;20.00;99.90
26745;DHT22;14342;50.960;13.880;2023-07-28T00:46:31;20.10;99.90
26745;DHT22;14342;50.960;13.880;2023-07-28T00:47:32;20.00;99.90
26745;DHT22;14342;50.960;13.880;2023-07-28T00:48:33;19.90;99.90
26745;DHT22;14342;50.960;13.880;2023-07-28T00:49:35;19.80;99.90
26745;DHT22;14342;50.960;13.880;2023-07-28T00:50:36;19.80;99.90
26745;DHT22;14342;50.960;13.880;2023-07-28T00:51:38;19.70;99.90
26745;DHT22;14342;50.960;13.880;2023-07-28T00:52:40;19.80;99.90
26745;DHT22;14342;50.960;13.880;2023-07-28T00:53:42;19.80;99.90
26745;DHT22;14342;50.960;13.880;2023-07-28T00:54:43;20.00;99.90
26745;DHT22;14342;50.960;13.880;2023-07-28T00:55:45;20.00;99.90
26745;DHT22;14342;50.960;13.880;2023-07-28T00:56:46;20.00;99.90
26745;DHT22;14342;50.960;13.880;2023-07-28T00:57:47;20.10;99.90
26745;DHT22;14342;50.960;13.880;2023-07-28T00:58:48;20.00;99.90
26745;DHT22;14342;50.960;13.880;2023-07-28T00:59:50;20.10;99.90
26745;DHT22;14342;50.960;13.880;2023-07-28T01:00:51;20.10;99.90
26745;DHT22;14342;50.960;13.880;2023-07-28T01:01:51;20.20;99.90
26745;DHT22;14342;50.960;13.880;2023-07-28T01:02:53;20.10;99.90
26745;DHT22;14342;50.960;13.880;2023-07-28T01:03:54;20.00;99.90
26745;DHT22;14342;50.960;13.880;2023-07-28T01:04:55;20.10;99.90
26745;DHT22;14342;50.960;13.880;2023-07-28T01:05:58;20.20;99.90
26745;DHT22;14342;50.960;13.880;2023-07-28T01:07:04;20.10;99.90
26745;DHT22;14342;50.960;13.880;2023-07-28T01:08:09;20.20;99.90
26745;DHT22;14342;50.960;13.880;2023-07-28T01:09:13;20.50;99.90
26745;DHT22;14342;50.960;13.880;2023-07-28T01:10:16;20.30;99.90
26745;DHT22;14342;50.960;13.880;2023-07-28T01:11:18;20.30;99.90
26745;DHT22;14342;50.960;13.880;2023-07-28T01:12:19;20.30;99.90
26745;DHT22;14342;50.960;13.880;2023-07-28T01:13:21;20.30;99.90
26745;DHT22;14342;50.960;13.880;2023-07-28T01:14:21;20.30;99.90
26745;DHT22;14342;50.960;13.880;2023-07-28T01:15:23;20.30;99.90
26745;DHT22;14342;50.960;13.880;2023-07-28T01:16:23;20.30;99.90
26745;DHT22;14342;50.960;13.880;2023-07-28T01:17:25;20.30;99.90
26745;DHT22;14342;50.960;13.880;2023-07-28T01:18:26;20.20;99.90
26745;DHT22;14342;50.960;13.880;2023-07-28T01:19:27;20.20;99.90
26745;DHT22;14342;50.960;13.880;2023-07-28T01:20:29;20.20;99.90
26745;DHT22;14342;50.960;13.880;2023-07-28T01:21:31;20.20;99.90
26745;DHT22;14342;50.960;13.880;2023-07-28T01:22:40;20.00;99.90
26745;DHT22;14342;50.960;13.880;2023-07-28T01:23:50;20.10;99.90
26745;DHT22;14342;50.960;13.880;2023-07-28T01:24:55;20.10;99.90
26745;DHT22;14342;50.960;13.880;2023-07-28T01:26:02;20.20;99.90
26745;DHT22;14342;50.960;13.880;2023-07-28T01:27:05;20.20;99.90
26745;DHT22;14342;50.960;13.880;2023-07-28T01:28:07;20.30;99.90
26745;DHT22;14342;50.960;13.880;2023-07-28T01:29:08;20.40;99.90
26745;DHT22;14342;50.960;13.880;2023-07-28T01:30:10;20.40;99.90
26745;DHT22;14342;50.960;13.880;2023-07-28T01:31:11;20.40;99.90
26745;DHT22;14342;50.960;13.880;2023-07-28T01:32:13;20.40;99.90
26745;DHT22;14342;50.960;13.880;2023-07-28T01:33:14;20.40;99.90
26745;DHT22;14342;50.960;13.880;2023-07-28T01:34:16;20.50;99.90
26745;DHT22;14342;50.960;13.880;2023-07-28T01:35:16;20.60;99.90
26745;DHT22;14342;50.960;13.880;2023-07-28T01:36:18;20.60;99.90
26745;DHT22;14342;50.960;13.880;2023-07-28T01:37:18;20.60;99.90
26745;DHT22;14342;50.960;13.880;2023-07-28T01:38:20;20.60;99.90
26745;DHT22;14342;50.960;13.880;2023-07-28T01:39:21;20.60;99.90
26745;DHT22;14342;50.960;13.880;2023-07-28T01:40:22;20.50;99.90
26745;DHT22;14342;50.960;13.880;2023-07-28T01:41:23;20.40;99.90
26745;DHT22;14342;50.960;13.880;2023-07-28T01:42:26;20.40;99.90
26745;DHT22;14342;50.960;13.880;2023-07-28T01:43:27;20.40;99.90
26745;DHT22;14342;50.960;13.880;2023-07-28T01:44:28;20.40;99.90
26745;DHT22;14342;50.960;13.880;2023-07-28T01:45:29;20.40;99.90
26745;DHT22;14342;50.960;13.880;2023-07-28T01:46:29;20.40;99.90
26745;DHT22;14342;50.960;13.880;2023-07-28T01:47:31;20.50;99.90
26745;DHT22;14342;50.960;13.880;2023-07-28T01:48:31;20.30;99.90
26745;DHT22;14342;50.960;13.880;2023-07-28T01:49:33;20.30;99.90
26745;DHT22;14342;50.960;13.880;2023-07-28T01:50:34;20.20;99.90
26745;DHT22;14342;50.960;13.880;2023-07-28T01:51:35;20.20;99.90
26745;DHT22;14342;50.960;13.880;2023-07-28T01:52:36;20.30;99.90
26745;DHT22;14342;50.960;13.880;2023-07-28T01:53:37;20.30;99.90
26745;DHT22;14342;50.960;13.880;2023-07-28T01:54:38;20.30;99.90
26745;DHT22;14342;50.960;13.880;2023-07-28T01:55:39;20.40;99.90
26745;DHT22;14342;50.960;13.880;2023-07-28T01:56:40;20.40;99.90
26745;DHT22;14342;50.960;13.880;2023-07-28T01:57:49;20.50;99.90
26745;DHT22;14342;50.960;13.880;2023-07-28T01:58:50;20.20;99.90
26745;DHT22;14342;50.960;13.880;2023-07-28T01:59:52;20.30;99.90
26745;DHT22;14342;50.960;13.880;2023-07-28T02:00:52;20.30;99.90
26745;DHT22;14342;50.960;13.880;2023-07-28T02:01:54;20.40;99.90
26745;DHT22;14342;50.960;13.880;2023-07-28T02:02:55;20.40;99.90
26745;DHT22;14342;50.960;13.880;2023-07-28T02:03:55;20.40;99.90
26745;DHT22;14342;50.960;13.880;2023-07-28T02:04:57;20.40;99.90
26745;DHT22;14342;50.960;13.880;2023-07-28T02:05:57;20.40;99.90
26745;DHT22;14342;50.960;13.880;2023-07-28T02:06:59;20.40;99.90
26745;DHT22;14342;50.960;13.880;2023-07-28T02:07:59;20.50;99.90
26745;DHT22;14342;50.960;13.880;2023-07-28T02:09:01;20.50;99.90
26745;DHT22;14342;50.960;13.880;2023-07-28T02:10:02;20.50;99.90
26745;DHT22;14342;50.960;13.880;2023-07-28T02:11:03;20.50;99.90
26745;DHT22;14342;50.960;13.880;2023-07-28T02:12:05;20.60;99.90
26745;DHT22;14342;50.960;13.880;2023-07-28T02:13:07;20.50;99.90
26745;DHT22;14342;50.960;13.880;2023-07-28T02:14:08;20.50;99.90
26745;DHT22;14342;50.960;13.880;2023-07-28T02:15:09;20.50;99.90
26745;DHT22;14342;50.960;13.880;2023-07-28T02:16:10;20.50;99.90
26745;DHT22;14342;50.960;13.880;2023-07-28T02:17:12;20.50;99.90
26745;DHT22;14342;50.960;13.880;2023-07-28T02:18:12;20.40;99.90
26745;DHT22;14342;50.960;13.880;2023-07-28T02:19:13;20.40;99.90
26745;DHT22;14342;50.960;13.880;2023-07-28T02:20:14;20.50;99.90
26745;DHT22;14342;50.960;13.880;2023-07-28T02:21:15;20.50;99.90
26745;DHT22;14342;50.960;13.880;2023-07-28T02:22:17;20.50;99.90
26745;DHT22;14342;50.960;13.880;2023-07-28T02:23:18;20.50;99.90
26745;DHT22;14342;50.960;13.880;2023-07-28T02:24:19;20.50;99.90
26745;DHT22;14342;50.960;13.880;2023-07-28T02:25:20;20.30;99.90
26745;DHT22;14342;50.960;13.880;2023-07-28T02:26:22;20.20;99.90
26745;DHT22;14342;50.960;13.880;2023-07-28T02:27:22;20.20;99.90
26745;DHT22;14342;50.960;13.880;2023-07-28T02:28:24;20.10;99.90
26745;DHT22;14342;50.960;13.880;2023-07-28T02:29:26;20.10;99.90
26745;DHT22;14342;50.960;13.880;2023-07-28T02:30:26;20.10;99.90
26745;DHT22;14342;50.960;13.880;2023-07-28T02:31:28;20.00;99.90
26745;DHT22;14342;50.960;13.880;2023-07-28T02:32:29;20.00;99.90
26745;DHT22;14342;50.960;13.880;2023-07-28T02:33:31;20.00;99.90
26745;DHT22;14342;50.960;13.880;2023-07-28T02:34:35;20.00;99.90
26745;DHT22;14342;50.960;13.880;2023-07-28T02:35:37;19.90;99.90
26745;DHT22;14342;50.960;13.880;2023-07-28T02:36:37;19.90;99.90
26745;DHT22;14342;50.960;13.880;2023-07-28T02:37:39;19.90;99.90
26745;DHT22;14342;50.960;13.880;2023-07-28T02:38:40;19.90;99.90
26745;DHT22;14342;50.960;13.880;2023-07-28T02:39:41;20.00;99.90
26745;DHT22;14342;50.960;13.880;2023-07-28T02:40:42;20.00;99.90
26745;DHT22;14342;50.960;13.880;2023-07-28T02:41:44;20.00;99.90
26745;DHT22;14342;50.960;13.880;2023-07-28T02:42:44;20.10;99.90
26745;DHT22;14342;50.960;13.880;2023-07-28T02:43:47;20.10;99.90
26745;DHT22;14342;50.960;13.880;2023-07-28T02:44:48;20.10;99.90
26745;DHT22;14342;50.960;13.880;2023-07-28T02:45:53;20.30;99.90
26745;DHT22;14342;50.960;13.880;2023-07-28T02:46:53;20.20;99.90
26745;DHT22;14342;50.960;13.880;2023-07-28T02:47:55;20.20;99.90
26745;DHT22;14342;50.960;13.880;2023-07-28T02:48:55;20.20;99.90
26745;DHT22;14342;50.960;13.880;2023-07-28T02:49:57;20.00;99.90
26745;DHT22;14342;50.960;13.880;2023-07-28T02:50:58;20.00;99.90
26745;DHT22;14342;50.960;13.880;2023-07-28T02:51:59;20.00;99.90
26745;DHT22;14342;50.960;13.880;2023-07-28T02:53:00;20.00;99.90
26745;DHT22;14342;50.960;13.880;2023-07-28T02:54:02;19.90;99.90
26745;DHT22;14342;50.960;13.880;2023-07-28T02:55:04;19.80;99.90
26745;DHT22;14342;50.960;13.880;2023-07-28T02:56:05;19.80;99.90
26745;DHT22;14342;50.960;13.880;2023-07-28T02:57:06;19.70;99.90
26745;DHT22;14342;50.960;13.880;2023-07-28T02:58:07;19.60;99.90
26745;DHT22;14342;50.960;13.880;2023-07-28T02:59:10;19.70;99.90
26745;DHT22;14342;50.960;13.880;2023-07-28T03:00:11;19.80;99.90
26745;DHT22;14342;50.960;13.880;2023-07-28T03:01:12;19.80;99.90
26745;DHT22;14342;50.960;13.880;2023-07-28T03:02:13;19.80;99.90
26745;DHT22;14342;50.960;13.880;2023-07-28T03:03:14;19.90;99.90
26745;DHT22;14342;50.960;13.880;2023-07-28T03:04:15;20.00;99.90
26745;DHT22;14342;50.960;13.880;2023-07-28T03:05:17;20.00;99.90
26745;DHT22;14342;50.960;13.880;2023-07-28T03:06:17;20.00;99.90
26745;DHT22;14342;50.960;13.880;2023-07-28T03:07:19;20.10;99.90
26745;DHT22;14342;50.960;13.880;2023-07-28T03:08:20;20.10;99.90
26745;DHT22;14342;50.960;13.880;2023-07-28T03:09:20;20.20;99.90
26745;DHT22;14342;50.960;13.880;2023-07-28T03:10:22;20.20;99.90
26745;DHT22;14342;50.960;13.880;2023-07-28T03:11:22;20.50;99.90
26745;DHT22;14342;50.960;13.880;2023-07-28T03:12:24;20.30;99.90
26745;DHT22;14342;50.960;13.880;2023-07-28T03:13:25;20.30;99.90
26745;DHT22;14342;50.960;13.880;2023-07-28T03:14:28;20.40;99.90
26745;DHT22;14342;50.960;13.880;2023-07-28T03:15:29;20.40;99.90
26745;DHT22;14342;50.960;13.880;2023-07-28T03:16:30;20.40;99.90
26745;DHT22;14342;50.960;13.880;2023-07-28T03:17:32;20.40;99.90
26745;DHT22;14342;50.960;13.880;2023-07-28T03:18:32;20.50;99.90
26745;DHT22;14342;50.960;13.880;2023-07-28T03:19:34;20.20;99.90
26745;DHT22;14342;50.960;13.880;2023-07-28T03:20:34;20.20;99.90
26745;DHT22;14342;50.960;13.880;2023-07-28T03:21:36;20.20;99.90
26745;DHT22;14342;50.960;13.880;2023-07-28T03:22:37;20.30;99.90
26745;DHT22;14342;50.960;13.880;2023-07-28T03:23:38;20.30;99.90
26745;DHT22;14342;50.960;13.880;2023-07-28T03:24:39;20.30;99.90
26745;DHT22;14342;50.960;13.880;2023-07-28T03:25:41;20.40;99.90
26745;DHT22;14342;50.960;13.880;2023-07-28T03:26:42;20.40;99.90
26745;DHT22;14342;50.960;13.880;2023-07-28T03:27:44;20.40;99.90
26745;DHT22;14342;50.960;13.880;2023-07-28T03:28:44;20.30;99.90
26745;DHT22;14342;50.960;13.880;2023-07-28T03:29:46;20.30;99.90
26745;DHT22;14342;50.960;13.880;2023-07-28T03:30:48;20.30;99.90
26745;DHT22;14342;50.960;13.880;2023-07-28T03:31:48;20.30;99.90
26745;DHT22;14342;50.960;13.880;2023-07-28T03:32:50;20.30;99.90
26745;DHT22;14342;50.960;13.880;2023-07-28T03:33:51;20.30;99.90
26745;DHT22;14342;50.960;13.880;2023-07-28T03:34:52;20.20;99.90
26745;DHT22;14342;50.960;13.880;2023-07-28T03:35:53;20.20;99.90
26745;DHT22;14342;50.960;13.880;2023-07-28T03:36:54;20.20;99.90
26745;DHT22;14342;50.960;13.880;2023-07-28T03:37:56;20.30;99.90
26745;DHT22;14342;50.960;13.880;2023-07-28T03:38:57;20.30;99.90
26745;DHT22;14342;50.960;13.880;2023-07-28T03:39:58;20.40;99.90
26745;DHT22;14342;50.960;13.880;2023-07-28T03:40:59;20.40;99.90
26745;DHT22;14342;50.960;13.880;2023-07-28T03:42:00;20.40;99.90
26745;DHT22;14342;50.960;13.880;2023-07-28T03:43:01;20.30;99.90
26745;DHT22;14342;50.960;13.880;2023-07-28T03:44:03;20.40;99.90
26745;DHT22;14342;50.960;13.880;2023-07-28T03:45:05;20.40;99.90
26745;DHT22;14342;50.960;13.880;2023-07-28T03:46:07;20.50;99.90
26745;DHT22;14342;50.960;13.880;2023-07-28T03:47:08;20.40;99.90
26745;DHT22;14342;50.960;13.880;2023-07-28T03:48:09;20.30;99.90
26745;DHT22;14342;50.960;13.880;2023-07-28T03:49:10;20.20;99.90
26745;DHT22;14342;50.960;13.880;2023-07-28T03:50:11;20.00;99.90
26745;DHT22;14342;50.960;13.880;2023-07-28T03:51:12;19.80;99.90
26745;DHT22;14342;50.960;13.880;2023-07-28T03:52:14;19.70;99.90
26745;DHT22;14342;50.960;13.880;2023-07-28T03:53:14;19.80;99.90
26745;DHT22;14342;50.960;13.880;2023-07-28T03:54:16;19.90;99.90
26745;DHT22;14342;50.960;13.880;2023-07-28T03:55:17;20.00;99.90
26745;DHT22;14342;50.960;13.880;2023-07-28T03:56:18;20.00;99.90
26745;DHT22;14342;50.960;13.880;2023-07-28T03:57:19;20.10;99.90
26745;DHT22;14342;50.960;13.880;2023-07-28T03:58:20;20.10;99.90
26745;DHT22;14342;50.960;13.880;2023-07-28T03:59:21;20.20;99.90
26745;DHT22;14342;50.960;13.880;2023-07-28T04:00:24;20.20;99.90
26745;DHT22;14342;50.960;13.880;2023-07-28T04:01:25;20.30;99.90
26745;DHT22;14342;50.960;13.880;2023-07-28T04:02:26;20.30;99.90
26745;DHT22;14342;50.960;13.880;2023-07-28T04:03:27;20.30;99.90
26745;DHT22;14342;50.960;13.880;2023-07-28T04:04:27;20.40;99.90
26745;DHT22;14342;50.960;13.880;2023-07-28T04:05:29;20.40;99.90
26745;DHT22;14342;50.960;13.880;2023-07-28T04:06:39;20.40;99.90
26745;DHT22;14342;50.960;13.880;2023-07-28T04:07:41;20.40;99.90
26745;DHT22;14342;50.960;13.880;2023-07-28T04:08:43;20.50;99.90
26745;DHT22;14342;50.960;13.880;2023-07-28T04:09:45;20.50;99.90
26745;DHT22;14342;50.960;13.880;2023-07-28T04:10:45;20.50;99.90
26745;DHT22;14342;50.960;13.880;2023-07-28T04:11:46;20.50;99.90
26745;DHT22;14342;50.960;13.880;2023-07-28T04:12:48;20.60;99.90
26745;DHT22;14342;50.960;13.880;2023-07-28T04:13:48;20.60;99.90
26745;DHT22;14342;50.960;13.880;2023-07-28T04:14:50;20.60;99.90
26745;DHT22;14342;50.960;13.880;2023-07-28T04:15:52;20.60;99.90
26745;DHT22;14342;50.960;13.880;2023-07-28T04:16:54;20.60;99.90
26745;DHT22;14342;50.960;13.880;2023-07-28T04:17:54;20.60;99.90
26745;DHT22;14342;50.960;13.880;2023-07-28T04:18:55;20.40;99.90
26745;DHT22;14342;50.960;13.880;2023-07-28T04:19:57;20.30;99.90
26745;DHT22;14342;50.960;13.880;2023-07-28T04:20:58;20.30;99.90
26745;DHT22;14342;50.960;13.880;2023-07-28T04:21:59;20.30;99.90
26745;DHT22;14342;50.960;13.880;2023-07-28T04:23:00;20.40;99.90
26745;DHT22;14342;50.960;13.880;2023-07-28T04:24:02;20.40;99.90
26745;DHT22;14342;50.960;13.880;2023-07-28T04:25:03;20.40;99.90
26745;DHT22;14342;50.960;13.880;2023-07-28T04:26:04;20.40;99.90
26745;DHT22;14342;50.960;13.880;2023-07-28T04:27:05;20.40;99.90
26745;DHT22;14342;50.960;13.880;2023-07-28T04:28:07;20.30;99.90
26745;DHT22;14342;50.960;13.880;2023-07-28T04:29:08;20.30;99.90
26745;DHT22;14342;50.960;13.880;2023-07-28T04:30:10;20.30;99.90
26745;DHT22;14342;50.960;13.880;2023-07-28T04:31:13;20.30;99.90
26745;DHT22;14342;50.960;13.880;2023-07-28T04:32:14;20.20;99.90
26745;DHT22;14342;50.960;13.880;2023-07-28T04:33:15;20.20;99.90
26745;DHT22;14342;50.960;13.880;2023-07-28T04:34:16;20.20;99.90
26745;DHT22;14342;50.960;13.880;2023-07-28T04:35:17;20.20;99.90
26745;DHT22;14342;50.960;13.880;2023-07-28T04:36:19;20.20;99.90
26745;DHT22;14342;50.960;13.880;2023-07-28T04:37:19;20.10;99.90
26745;DHT22;14342;50.960;13.880;2023-07-28T04:38:20;20.00;99.90
26745;DHT22;14342;50.960;13.880;2023-07-28T04:39:21;20.10;99.90
26745;DHT22;14342;50.960;13.880;2023-07-28T04:40:22;20.00;99.90
26745;DHT22;14342;50.960;13.880;2023-07-28T04:41:24;20.10;99.90
26745;DHT22;14342;50.960;13.880;2023-07-28T04:42:24;20.10;99.90
26745;DHT22;14342;50.960;13.880;2023-07-28T04:43:26;20.20;99.90
26745;DHT22;14342;50.960;13.880;2023-07-28T04:44:26;20.20;99.90
26745;DHT22;14342;50.960;13.880;2023-07-28T04:45:27;20.10;99.90
26745;DHT22;14342;50.960;13.880;2023-07-28T04:46:30;20.20;99.90
26745;DHT22;14342;50.960;13.880;2023-07-28T04:47:31;20.30;99.90
26745;DHT22;14342;50.960;13.880;2023-07-28T04:48:32;20.10;99.90
26745;DHT22;14342;50.960;13.880;2023-07-28T04:49:33;20.10;99.90
26745;DHT22;14342;50.960;13.880;2023-07-28T04:50:34;20.00;99.90
26745;DHT22;14342;50.960;13.880;2023-07-28T04:51:35;20.00;99.90
26745;DHT22;14342;50.960;13.880;2023-07-28T04:52:37;20.00;99.90
26745;DHT22;14342;50.960;13.880;2023-07-28T04:53:37;20.10;99.90
26745;DHT22;14342;50.960;13.880;2023-07-28T04:54:39;20.10;99.90
26745;DHT22;14342;50.960;13.880;2023-07-28T04:55:40;20.10;99.90
26745;DHT22;14342;50.960;13.880;2023-07-28T04:56:41;20.10;99.90
26745;DHT22;14342;50.960;13.880;2023-07-28T04:57:42;20.10;99.90
26745;DHT22;14342;50.960;13.880;2023-07-28T04:58:43;20.10;99.90
26745;DHT22;14342;50.960;13.880;2023-07-28T04:59:44;20.20;99.90
26745;DHT22;14342;50.960;13.880;2023-07-28T05:00:46;20.10;99.90
26745;DHT22;14342;50.960;13.880;2023-07-28T05:01:48;20.20;99.90
26745;DHT22;14342;50.960;13.880;2023-07-28T05:02:48;20.10;99.90
26745;DHT22;14342;50.960;13.880;2023-07-28T05:03:50;20.20;99.90
26745;DHT22;14342;50.960;13.880;2023-07-28T05:04:50;20.20;99.90
26745;DHT22;14342;50.960;13.880;2023-07-28T05:05:52;20.20;99.90
26745;DHT22;14342;50.960;13.880;2023-07-28T05:06:53;20.20;99.90
26745;DHT22;14342;50.960;13.880;2023-07-28T05:07:54;20.20;99.90
26745;DHT22;14342;50.960;13.880;2023-07-28T05:08:55;20.30;99.90
26745;DHT22;14342;50.960;13.880;2023-07-28T05:09:56;20.30;99.90
26745;DHT22;14342;50.960;13.880;2023-07-28T05:10:57;20.30;99.90
26745;DHT22;14342;50.960;13.880;2023-07-28T05:11:59;20.40;99.90
26745;DHT22;14342;50.960;13.880;2023-07-28T05:12:59;20.40;99.90
26745;DHT22;14342;50.960;13.880;2023-07-28T05:14:01;20.30;99.90
26745;DHT22;14342;50.960;13.880;2023-07-28T05:15:02;20.30;99.90
26745;DHT22;14342;50.960;13.880;2023-07-28T05:16:04;20.40;99.90
26745;DHT22;14342;50.960;13.880;2023-07-28T05:17:06;20.30;99.90
26745;DHT22;14342;50.960;13.880;2023-07-28T05:18:08;20.30;99.90
26745;DHT22;14342;50.960;13.880;2023-07-28T05:19:09;20.20;99.90
26745;DHT22;14342;50.960;13.880;2023-07-28T05:20:10;20.30;99.90
26745;DHT22;14342;50.960;13.880;2023-07-28T05:21:11;20.20;99.90
26745;DHT22;14342;50.960;13.880;2023-07-28T05:22:12;20.30;99.90
26745;DHT22;14342;50.960;13.880;2023-07-28T05:23:13;20.30;99.90
26745;DHT22;14342;50.960;13.880;2023-07-28T05:24:14;20.40;99.90
26745;DHT22;14342;50.960;13.880;2023-07-28T05:25:15;20.40;99.90
26745;DHT22;14342;50.960;13.880;2023-07-28T05:26:16;20.00;99.90
26745;DHT22;14342;50.960;13.880;2023-07-28T05:27:17;20.40;99.90
26745;DHT22;14342;50.960;13.880;2023-07-28T05:28:18;20.30;99.90
26745;DHT22;14342;50.960;13.880;2023-07-28T05:29:19;20.30;99.90
26745;DHT22;14342;50.960;13.880;2023-07-28T05:30:20;20.30;99.90
26745;DHT22;14342;50.960;13.880;2023-07-28T05:31:22;20.30;99.90
26745;DHT22;14342;50.960;13.880;2023-07-28T05:32:23;20.30;99.90
26745;DHT22;14342;50.960;13.880;2023-07-28T05:33:25;20.30;99.90
26745;DHT22;14342;50.960;13.880;2023-07-28T05:34:26;20.40;99.90
26745;DHT22;14342;50.960;13.880;2023-07-28T05:35:26;20.40;99.90
26745;DHT22;14342;50.960;13.880;2023-07-28T05:36:28;20.40;99.90
26745;DHT22;14342;50.960;13.880;2023-07-28T05:37:29;20.40;99.90
26745;DHT22;14342;50.960;13.880;2023-07-28T05:38:30;20.40;99.90
26745;DHT22;14342;50.960;13.880;2023-07-28T05:39:31;20.40;99.90
26745;DHT22;14342;50.960;13.880;2023-07-28T05:40:32;20.40;99.90
26745;DHT22;14342;50.960;13.880;2023-07-28T05:41:33;20.50;99.90
26745;DHT22;14342;50.960;13.880;2023-07-28T05:42:35;20.60;99.90
26745;DHT22;14342;50.960;13.880;2023-07-28T05:43:35;20.60;99.90
26745;DHT22;14342;50.960;13.880;2023-07-28T05:44:37;20.60;99.90
26745;DHT22;14342;50.960;13.880;2023-07-28T05:45:37;20.60;99.90
26745;DHT22;14342;50.960;13.880;2023-07-28T05:46:39;20.60;99.90
26745;DHT22;14342;50.960;13.880;2023-07-28T05:47:41;20.70;99.90
26745;DHT22;14342;50.960;13.880;2023-07-28T05:48:42;20.70;99.90
26745;DHT22;14342;50.960;13.880;2023-07-28T05:49:43;20.70;99.90
26745;DHT22;14342;50.960;13.880;2023-07-28T05:50:45;20.70;99.90
26745;DHT22;14342;50.960;13.880;2023-07-28T05:51:46;20.60;99.90
26745;DHT22;14342;50.960;13.880;2023-07-28T05:52:47;20.70;99.90
26745;DHT22;14342;50.960;13.880;2023-07-28T05:53:48;20.70;99.90
26745;DHT22;14342;50.960;13.880;2023-07-28T05:54:50;20.80;99.90
26745;DHT22;14342;50.960;13.880;2023-07-28T05:55:51;20.70;99.90
26745;DHT22;14342;50.960;13.880;2023-07-28T05:56:52;20.70;99.90
26745;DHT22;14342;50.960;13.880;2023-07-28T05:57:53;20.60;99.90
26745;DHT22;14342;50.960;13.880;2023-07-28T05:58:55;20.70;99.90
26745;DHT22;14342;50.960;13.880;2023-07-28T05:59:55;20.80;99.90
26745;DHT22;14342;50.960;13.880;2023-07-28T06:00:57;20.70;99.90
26745;DHT22;14342;50.960;13.880;2023-07-28T06:01:58;20.80;99.90
26745;DHT22;14342;50.960;13.880;2023-07-28T06:03:01;20.70;99.90
26745;DHT22;14342;50.960;13.880;2023-07-28T06:04:01;20.80;99.90
26745;DHT22;14342;50.960;13.880;2023-07-28T06:05:03;20.80;99.90
26745;DHT22;14342;50.960;13.880;2023-07-28T06:06:04;20.40;99.90
26745;DHT22;14342;50.960;13.880;2023-07-28T06:07:05;20.70;99.90
26745;DHT22;14342;50.960;13.880;2023-07-28T06:08:06;20.70;99.90
26745;DHT22;14342;50.960;13.880;2023-07-28T06:09:08;20.60;99.90
26745;DHT22;14342;50.960;13.880;2023-07-28T06:10:08;20.70;99.90
26745;DHT22;14342;50.960;13.880;2023-07-28T06:11:10;20.70;99.90
26745;DHT22;14342;50.960;13.880;2023-07-28T06:12:11;20.70;99.90
26745;DHT22;14342;50.960;13.880;2023-07-28T06:13:12;20.70;99.90
26745;DHT22;14342;50.960;13.880;2023-07-28T06:14:13;20.70;99.90
26745;DHT22;14342;50.960;13.880;2023-07-28T06:15:14;20.70;99.90
26745;DHT22;14342;50.960;13.880;2023-07-28T06:16:16;20.60;99.90
26745;DHT22;14342;50.960;13.880;2023-07-28T06:17:16;20.60;99.90
26745;DHT22;14342;50.960;13.880;2023-07-28T06:18:19;20.70;99.90
26745;DHT22;14342;50.960;13.880;2023-07-28T06:19:22;20.60;99.90
26745;DHT22;14342;50.960;13.880;2023-07-28T06:20:25;20.60;99.90
26745;DHT22;14342;50.960;13.880;2023-07-28T06:21:25;20.70;99.90